sensor_id;sensor_type;location;lat;lon;timestamp;P1;durP1;ratioP1;P2;durP2;ratioP2
49237;SDS011;35069;47.906;1.892;2023-11-19T00:01:35;8.75;;;3.78;;
49237;SDS011;35069;47.906;1.892;2023-11-19T00:04:01;6.57;;;3.10;;
49237;SDS011;35069;47.906;1.892;2023-11-19T00:06:29;11.55;;;3.60;;
49237;SDS011;35069;47.906;1.892;2023-11-19T00:08:55;6.75;;;3.63;;
49237;SDS011;35069;47.906;1.892;2023-11-19T00:11:21;6.78;;;3.72;;
49237;SDS011;35069;47.906;1.892;2023-11-19T00:13:46;7.57;;;3.70;;
49237;SDS011;35069;47.906;1.892;2023-11-19T00:16:12;12.73;;;3.65;;
49237;SDS011;35069;47.906;1.892;2023-11-19T00:18:37;12.02;;;4.88;;
49237;SDS011;35069;47.906;1.892;2023-11-19T00:21:03;7.78;;;3.22;;
49237;SDS011;35069;47.906;1.892;2023-11-19T00:23:28;7.78;;;3.72;;
49237;SDS011;35069;47.906;1.892;2023-11-19T00:25:54;7.43;;;3.78;;
49237;SDS011;35069;47.906;1.892;2023-11-19T00:28:19;8.32;;;3.95;;
49237;SDS011;35069;47.906;1.892;2023-11-19T00:30:45;9.93;;;4.07;;
49237;SDS011;35069;47.906;1.892;2023-11-19T00:33:11;9.80;;;4.85;;
49237;SDS011;35069;47.906;1.892;2023-11-19T00:35:36;12.43;;;5.28;;
49237;SDS011;35069;47.906;1.892;2023-11-19T00:38:02;9.63;;;5.18;;
49237;SDS011;35069;47.906;1.892;2023-11-19T00:40:29;8.65;;;4.32;;
49237;SDS011;35069;47.906;1.892;2023-11-19T00:42:54;9.10;;;5.05;;
49237;SDS011;35069;47.906;1.892;2023-11-19T00:45:20;7.95;;;5.13;;
49237;SDS011;35069;47.906;1.892;2023-11-19T00:47:45;10.77;;;4.78;;
49237;SDS011;35069;47.906;1.892;2023-11-19T00:50:11;8.85;;;4.60;;
49237;SDS011;35069;47.906;1.892;2023-11-19T00:52:38;5.28;;;3.92;;
49237;SDS011;35069;47.906;1.892;2023-11-19T00:55:04;10.00;;;4.93;;
49237;SDS011;35069;47.906;1.892;2023-11-19T00:57:30;5.18;;;4.40;;
49237;SDS011;35069;47.906;1.892;2023-11-19T00:59:57;8.70;;;3.63;;
49237;SDS011;35069;47.906;1.892;2023-11-19T01:02:23;8.13;;;4.25;;
49237;SDS011;35069;47.906;1.892;2023-11-19T01:04:49;7.32;;;4.72;;
49237;SDS011;35069;47.906;1.892;2023-11-19T01:07:15;6.82;;;3.50;;
49237;SDS011;35069;47.906;1.892;2023-11-19T01:09:43;7.90;;;4.00;;
49237;SDS011;35069;47.906;1.892;2023-11-19T01:12:09;7.25;;;2.90;;
49237;SDS011;35069;47.906;1.892;2023-11-19T01:14:35;8.43;;;3.90;;
49237;SDS011;35069;47.906;1.892;2023-11-19T01:17:01;6.15;;;3.80;;
49237;SDS011;35069;47.906;1.892;2023-11-19T01:19:26;5.20;;;2.90;;
49237;SDS011;35069;47.906;1.892;2023-11-19T01:21:53;6.82;;;3.70;;
49237;SDS011;35069;47.906;1.892;2023-11-19T01:24:19;3.63;;;2.78;;
49237;SDS011;35069;47.906;1.892;2023-11-19T01:26:44;9.32;;;3.30;;
49237;SDS011;35069;47.906;1.892;2023-11-19T01:29:13;6.18;;;3.15;;
49237;SDS011;35069;47.906;1.892;2023-11-19T01:31:40;3.65;;;3.35;;
49237;SDS011;35069;47.906;1.892;2023-11-19T01:34:06;3.47;;;2.65;;
49237;SDS011;35069;47.906;1.892;2023-11-19T01:36:33;4.35;;;2.17;;
49237;SDS011;35069;47.906;1.892;2023-11-19T01:38:58;4.55;;;2.55;;
49237;SDS011;35069;47.906;1.892;2023-11-19T01:41:24;5.78;;;2.67;;
49237;SDS011;35069;47.906;1.892;2023-11-19T01:43:50;8.05;;;2.70;;
49237;SDS011;35069;47.906;1.892;2023-11-19T01:46:15;4.47;;;2.92;;
49237;SDS011;35069;47.906;1.892;2023-11-19T01:48:42;2.05;;;1.95;;
49237;SDS011;35069;47.906;1.892;2023-11-19T01:51:10;10.05;;;2.45;;
49237;SDS011;35069;47.906;1.892;2023-11-19T01:53:37;5.00;;;3.00;;
49237;SDS011;35069;47.906;1.892;2023-11-19T01:56:06;4.80;;;3.15;;
49237;SDS011;35069;47.906;1.892;2023-11-19T01:58:35;5.90;;;3.28;;
49237;SDS011;35069;47.906;1.892;2023-11-19T02:01:05;3.63;;;2.30;;
49237;SDS011;35069;47.906;1.892;2023-11-19T02:03:32;7.63;;;2.75;;
49237;SDS011;35069;47.906;1.892;2023-11-19T02:05:58;2.35;;;1.83;;
49237;SDS011;35069;47.906;1.892;2023-11-19T02:08:27;4.65;;;3.05;;
49237;SDS011;35069;47.906;1.892;2023-11-19T02:10:55;6.82;;;3.88;;
49237;SDS011;35069;47.906;1.892;2023-11-19T02:13:22;2.90;;;2.05;;
49237;SDS011;35069;47.906;1.892;2023-11-19T02:15:51;2.72;;;1.80;;
49237;SDS011;35069;47.906;1.892;2023-11-19T02:18:24;2.55;;;1.42;;
49237;SDS011;35069;47.906;1.892;2023-11-19T02:20:55;2.72;;;2.00;;
49237;SDS011;35069;47.906;1.892;2023-11-19T02:23:22;1.98;;;1.80;;
49237;SDS011;35069;47.906;1.892;2023-11-19T02:25:58;3.33;;;1.23;;
49237;SDS011;35069;47.906;1.892;2023-11-19T02:28:44;3.28;;;1.83;;
49237;SDS011;35069;47.906;1.892;2023-11-19T02:31:10;2.50;;;1.20;;
49237;SDS011;35069;47.906;1.892;2023-11-19T02:33:36;3.38;;;1.30;;
49237;SDS011;35069;47.906;1.892;2023-11-19T02:36:06;2.35;;;1.30;;
49237;SDS011;35069;47.906;1.892;2023-11-19T02:38:32;1.13;;;1.10;;
49237;SDS011;35069;47.906;1.892;2023-11-19T02:40:59;2.92;;;1.20;;
49237;SDS011;35069;47.906;1.892;2023-11-19T02:43:27;2.65;;;1.10;;
49237;SDS011;35069;47.906;1.892;2023-11-19T02:45:53;3.75;;;1.50;;
49237;SDS011;35069;47.906;1.892;2023-11-19T02:48:20;4.20;;;1.40;;
49237;SDS011;35069;47.906;1.892;2023-11-19T02:50:46;1.20;;;1.20;;
49237;SDS011;35069;47.906;1.892;2023-11-19T02:53:12;2.20;;;1.17;;
49237;SDS011;35069;47.906;1.892;2023-11-19T02:55:38;2.05;;;1.10;;
49237;SDS011;35069;47.906;1.892;2023-11-19T02:58:13;3.17;;;1.20;;
49237;SDS011;35069;47.906;1.892;2023-11-19T03:00:45;4.93;;;1.08;;
49237;SDS011;35069;47.906;1.892;2023-11-19T03:05:45;1.00;;;0.93;;
49237;SDS011;35069;47.906;1.892;2023-11-19T03:08:12;1.08;;;1.08;;
49237;SDS011;35069;47.906;1.892;2023-11-19T03:10:37;1.45;;;1.10;;
49237;SDS011;35069;47.906;1.892;2023-11-19T03:13:03;2.67;;;1.25;;
49237;SDS011;35069;47.906;1.892;2023-11-19T03:15:29;1.85;;;1.00;;
49237;SDS011;35069;47.906;1.892;2023-11-19T03:17:55;1.00;;;1.00;;
49237;SDS011;35069;47.906;1.892;2023-11-19T03:20:20;1.25;;;0.93;;
49237;SDS011;35069;47.906;1.892;2023-11-19T03:22:48;4.40;;;1.70;;
49237;SDS011;35069;47.906;1.892;2023-11-19T03:25:15;1.55;;;0.90;;
49237;SDS011;35069;47.906;1.892;2023-11-19T03:27:41;3.85;;;1.30;;
49237;SDS011;35069;47.906;1.892;2023-11-19T03:30:07;3.10;;;1.30;;
49237;SDS011;35069;47.906;1.892;2023-11-19T03:32:34;2.92;;;1.52;;
49237;SDS011;35069;47.906;1.892;2023-11-19T03:35:00;3.03;;;1.75;;
49237;SDS011;35069;47.906;1.892;2023-11-19T03:37:27;5.93;;;1.40;;
49237;SDS011;35069;47.906;1.892;2023-11-19T03:39:56;3.08;;;1.50;;
49237;SDS011;35069;47.906;1.892;2023-11-19T03:42:24;5.15;;;1.80;;
49237;SDS011;35069;47.906;1.892;2023-11-19T03:44:54;1.50;;;1.38;;
49237;SDS011;35069;47.906;1.892;2023-11-19T03:47:20;4.15;;;1.92;;
49237;SDS011;35069;47.906;1.892;2023-11-19T03:49:49;3.42;;;2.28;;
49237;SDS011;35069;47.906;1.892;2023-11-19T03:52:15;2.17;;;1.60;;
49237;SDS011;35069;47.906;1.892;2023-11-19T03:54:41;5.45;;;1.73;;
49237;SDS011;35069;47.906;1.892;2023-11-19T03:57:07;3.60;;;2.42;;
49237;SDS011;35069;47.906;1.892;2023-11-19T03:59:35;4.63;;;2.15;;
49237;SDS011;35069;47.906;1.892;2023-11-19T04:02:01;5.63;;;1.60;;
49237;SDS011;35069;47.906;1.892;2023-11-19T04:04:27;3.40;;;1.88;;
49237;SDS011;35069;47.906;1.892;2023-11-19T04:06:53;3.05;;;1.30;;
49237;SDS011;35069;47.906;1.892;2023-11-19T04:09:19;5.00;;;1.90;;
49237;SDS011;35069;47.906;1.892;2023-11-19T04:11:44;4.35;;;1.88;;
49237;SDS011;35069;47.906;1.892;2023-11-19T04:14:12;4.28;;;2.03;;
49237;SDS011;35069;47.906;1.892;2023-11-19T04:16:38;2.60;;;1.50;;
49237;SDS011;35069;47.906;1.892;2023-11-19T04:19:04;2.47;;;1.60;;
49237;SDS011;35069;47.906;1.892;2023-11-19T04:21:30;4.07;;;1.65;;
49237;SDS011;35069;47.906;1.892;2023-11-19T04:23:55;1.77;;;1.60;;
49237;SDS011;35069;47.906;1.892;2023-11-19T04:26:21;3.40;;;1.60;;
49237;SDS011;35069;47.906;1.892;2023-11-19T04:28:47;12.52;;;2.05;;
49237;SDS011;35069;47.906;1.892;2023-11-19T04:31:14;3.10;;;1.20;;
49237;SDS011;35069;47.906;1.892;2023-11-19T04:33:45;4.75;;;1.65;;
49237;SDS011;35069;47.906;1.892;2023-11-19T04:36:24;6.45;;;2.20;;
49237;SDS011;35069;47.906;1.892;2023-11-19T04:38:52;5.40;;;1.73;;
49237;SDS011;35069;47.906;1.892;2023-11-19T04:41:20;3.92;;;1.98;;
49237;SDS011;35069;47.906;1.892;2023-11-19T04:43:46;5.22;;;1.77;;
49237;SDS011;35069;47.906;1.892;2023-11-19T04:46:12;11.77;;;2.33;;
49237;SDS011;35069;47.906;1.892;2023-11-19T04:48:37;3.10;;;1.83;;
49237;SDS011;35069;47.906;1.892;2023-11-19T04:51:06;7.05;;;1.85;;
49237;SDS011;35069;47.906;1.892;2023-11-19T04:53:34;7.88;;;2.42;;
49237;SDS011;35069;47.906;1.892;2023-11-19T04:56:00;5.25;;;1.80;;
49237;SDS011;35069;47.906;1.892;2023-11-19T04:58:26;8.48;;;1.88;;
49237;SDS011;35069;47.906;1.892;2023-11-19T05:00:54;5.40;;;1.70;;
49237;SDS011;35069;47.906;1.892;2023-11-19T05:03:20;4.53;;;1.83;;
49237;SDS011;35069;47.906;1.892;2023-11-19T05:05:47;4.00;;;1.60;;
49237;SDS011;35069;47.906;1.892;2023-11-19T05:08:14;6.68;;;1.80;;
49237;SDS011;35069;47.906;1.892;2023-11-19T05:10:39;9.88;;;2.58;;
49237;SDS011;35069;47.906;1.892;2023-11-19T05:13:06;7.85;;;1.50;;
49237;SDS011;35069;47.906;1.892;2023-11-19T05:15:31;4.88;;;1.80;;
49237;SDS011;35069;47.906;1.892;2023-11-19T05:18:04;3.13;;;1.90;;
49237;SDS011;35069;47.906;1.892;2023-11-19T05:20:56;7.32;;;1.60;;
49237;SDS011;35069;47.906;1.892;2023-11-19T05:23:21;8.57;;;1.67;;
49237;SDS011;35069;47.906;1.892;2023-11-19T05:25:47;8.77;;;2.30;;
49237;SDS011;35069;47.906;1.892;2023-11-19T05:28:12;9.05;;;3.25;;
49237;SDS011;35069;47.906;1.892;2023-11-19T05:30:39;11.05;;;2.58;;
49237;SDS011;35069;47.906;1.892;2023-11-19T05:33:05;7.22;;;1.73;;
49237;SDS011;35069;47.906;1.892;2023-11-19T05:35:31;7.07;;;2.03;;
49237;SDS011;35069;47.906;1.892;2023-11-19T05:37:57;5.75;;;1.88;;
49237;SDS011;35069;47.906;1.892;2023-11-19T05:40:23;6.75;;;1.77;;
49237;SDS011;35069;47.906;1.892;2023-11-19T05:42:48;4.70;;;1.65;;
49237;SDS011;35069;47.906;1.892;2023-11-19T05:45:17;7.72;;;2.40;;
49237;SDS011;35069;47.906;1.892;2023-11-19T05:48:00;10.40;;;1.60;;
49237;SDS011;35069;47.906;1.892;2023-11-19T05:50:29;7.72;;;1.90;;
49237;SDS011;35069;47.906;1.892;2023-11-19T05:52:55;7.70;;;1.83;;
49237;SDS011;35069;47.906;1.892;2023-11-19T05:55:20;9.90;;;1.63;;
49237;SDS011;35069;47.906;1.892;2023-11-19T05:57:51;10.23;;;2.08;;
49237;SDS011;35069;47.906;1.892;2023-11-19T06:00:19;9.45;;;1.60;;
49237;SDS011;35069;47.906;1.892;2023-11-19T06:02:55;7.28;;;2.05;;
49237;SDS011;35069;47.906;1.892;2023-11-19T06:05:21;9.30;;;2.90;;
49237;SDS011;35069;47.906;1.892;2023-11-19T06:07:54;11.70;;;2.85;;
49237;SDS011;35069;47.906;1.892;2023-11-19T06:10:23;8.10;;;2.47;;
49237;SDS011;35069;47.906;1.892;2023-11-19T06:12:54;7.60;;;2.65;;
49237;SDS011;35069;47.906;1.892;2023-11-19T06:15:22;10.07;;;2.22;;
49237;SDS011;35069;47.906;1.892;2023-11-19T06:18:03;6.93;;;2.03;;
49237;SDS011;35069;47.906;1.892;2023-11-19T06:20:44;9.95;;;1.75;;
49237;SDS011;35069;47.906;1.892;2023-11-19T06:26:06;11.82;;;2.70;;
49237;SDS011;35069;47.906;1.892;2023-11-19T06:28:34;13.00;;;3.03;;
49237;SDS011;35069;47.906;1.892;2023-11-19T06:31:10;12.75;;;2.28;;
49237;SDS011;35069;47.906;1.892;2023-11-19T06:37:46;10.68;;;2.83;;
49237;SDS011;35069;47.906;1.892;2023-11-19T06:40:42;13.95;;;2.70;;
49237;SDS011;35069;47.906;1.892;2023-11-19T06:43:08;11.85;;;2.20;;
49237;SDS011;35069;47.906;1.892;2023-11-19T06:45:34;7.15;;;2.22;;
49237;SDS011;35069;47.906;1.892;2023-11-19T06:48:01;9.60;;;1.98;;
49237;SDS011;35069;47.906;1.892;2023-11-19T06:50:33;12.73;;;2.78;;
49237;SDS011;35069;47.906;1.892;2023-11-19T06:52:58;11.63;;;2.17;;
49237;SDS011;35069;47.906;1.892;2023-11-19T06:55:24;11.15;;;2.28;;
49237;SDS011;35069;47.906;1.892;2023-11-19T06:57:51;14.35;;;2.28;;
49237;SDS011;35069;47.906;1.892;2023-11-19T07:00:16;9.25;;;2.40;;
49237;SDS011;35069;47.906;1.892;2023-11-19T07:02:43;9.32;;;2.38;;
49237;SDS011;35069;47.906;1.892;2023-11-19T07:05:09;9.40;;;2.03;;
49237;SDS011;35069;47.906;1.892;2023-11-19T07:07:37;10.05;;;2.60;;
49237;SDS011;35069;47.906;1.892;2023-11-19T07:10:02;6.03;;;2.17;;
49237;SDS011;35069;47.906;1.892;2023-11-19T07:12:32;11.45;;;2.67;;
49237;SDS011;35069;47.906;1.892;2023-11-19T07:15:00;14.65;;;2.42;;
49237;SDS011;35069;47.906;1.892;2023-11-19T07:17:28;14.20;;;2.85;;
49237;SDS011;35069;47.906;1.892;2023-11-19T07:19:54;12.73;;;3.03;;
49237;SDS011;35069;47.906;1.892;2023-11-19T07:22:56;10.93;;;2.38;;
49237;SDS011;35069;47.906;1.892;2023-11-19T07:25:37;11.07;;;1.88;;
49237;SDS011;35069;47.906;1.892;2023-11-19T07:28:24;7.35;;;2.30;;
49237;SDS011;35069;47.906;1.892;2023-11-19T07:30:58;13.85;;;2.38;;
49237;SDS011;35069;47.906;1.892;2023-11-19T07:33:24;15.27;;;2.25;;
49237;SDS011;35069;47.906;1.892;2023-11-19T07:35:56;10.10;;;2.60;;
49237;SDS011;35069;47.906;1.892;2023-11-19T07:38:22;14.60;;;2.55;;
49237;SDS011;35069;47.906;1.892;2023-11-19T07:40:47;11.18;;;2.25;;
49237;SDS011;35069;47.906;1.892;2023-11-19T07:43:13;11.32;;;2.60;;
49237;SDS011;35069;47.906;1.892;2023-11-19T07:45:41;5.93;;;2.28;;
49237;SDS011;35069;47.906;1.892;2023-11-19T07:48:12;11.43;;;3.30;;
49237;SDS011;35069;47.906;1.892;2023-11-19T07:50:39;10.00;;;2.28;;
49237;SDS011;35069;47.906;1.892;2023-11-19T07:53:07;11.23;;;2.47;;
49237;SDS011;35069;47.906;1.892;2023-11-19T07:55:33;8.15;;;2.75;;
49237;SDS011;35069;47.906;1.892;2023-11-19T07:57:59;10.43;;;2.88;;
49237;SDS011;35069;47.906;1.892;2023-11-19T08:00:26;15.45;;;2.75;;
49237;SDS011;35069;47.906;1.892;2023-11-19T08:02:51;15.32;;;2.80;;
49237;SDS011;35069;47.906;1.892;2023-11-19T08:05:17;17.80;;;3.50;;
49237;SDS011;35069;47.906;1.892;2023-11-19T08:07:43;11.55;;;2.92;;
49237;SDS011;35069;47.906;1.892;2023-11-19T08:10:09;14.95;;;3.13;;
49237;SDS011;35069;47.906;1.892;2023-11-19T08:12:35;14.13;;;3.70;;
49237;SDS011;35069;47.906;1.892;2023-11-19T08:15:03;14.00;;;3.10;;
49237;SDS011;35069;47.906;1.892;2023-11-19T08:17:33;13.90;;;3.35;;
49237;SDS011;35069;47.906;1.892;2023-11-19T08:19:58;18.25;;;4.32;;
49237;SDS011;35069;47.906;1.892;2023-11-19T08:22:25;14.63;;;2.80;;
49237;SDS011;35069;47.906;1.892;2023-11-19T08:24:50;17.30;;;3.28;;
49237;SDS011;35069;47.906;1.892;2023-11-19T08:27:16;13.45;;;3.70;;
49237;SDS011;35069;47.906;1.892;2023-11-19T08:29:42;14.98;;;2.75;;
49237;SDS011;35069;47.906;1.892;2023-11-19T08:32:07;17.45;;;4.80;;
49237;SDS011;35069;47.906;1.892;2023-11-19T08:34:33;13.20;;;3.63;;
49237;SDS011;35069;47.906;1.892;2023-11-19T08:37:04;15.27;;;2.80;;
49237;SDS011;35069;47.906;1.892;2023-11-19T08:39:31;14.95;;;3.05;;
49237;SDS011;35069;47.906;1.892;2023-11-19T08:42:05;17.83;;;3.28;;
49237;SDS011;35069;47.906;1.892;2023-11-19T08:44:39;14.65;;;3.20;;
49237;SDS011;35069;47.906;1.892;2023-11-19T08:47:26;17.35;;;3.70;;
49237;SDS011;35069;47.906;1.892;2023-11-19T08:57:15;17.45;;;3.85;;
49237;SDS011;35069;47.906;1.892;2023-11-19T09:00:10;16.20;;;3.60;;
49237;SDS011;35069;47.906;1.892;2023-11-19T09:06:40;15.43;;;3.90;;
49237;SDS011;35069;47.906;1.892;2023-11-19T09:20:35;16.48;;;4.18;;
49237;SDS011;35069;47.906;1.892;2023-11-19T09:23:03;13.88;;;2.97;;
49237;SDS011;35069;47.906;1.892;2023-11-19T09:25:30;15.98;;;4.30;;
49237;SDS011;35069;47.906;1.892;2023-11-19T09:27:56;11.85;;;3.47;;
49237;SDS011;35069;47.906;1.892;2023-11-19T09:30:21;16.13;;;3.35;;
49237;SDS011;35069;47.906;1.892;2023-11-19T09:32:47;17.70;;;4.43;;
49237;SDS011;35069;47.906;1.892;2023-11-19T09:35:13;16.75;;;3.25;;
49237;SDS011;35069;47.906;1.892;2023-11-19T09:37:43;15.82;;;3.58;;
49237;SDS011;35069;47.906;1.892;2023-11-19T09:40:09;28.48;;;4.43;;
49237;SDS011;35069;47.906;1.892;2023-11-19T09:42:40;16.50;;;3.08;;
49237;SDS011;35069;47.906;1.892;2023-11-19T09:45:13;17.88;;;3.08;;
49237;SDS011;35069;47.906;1.892;2023-11-19T09:47:42;15.48;;;4.05;;
49237;SDS011;35069;47.906;1.892;2023-11-19T09:50:10;21.35;;;4.00;;
49237;SDS011;35069;47.906;1.892;2023-11-19T09:52:40;10.57;;;3.13;;
49237;SDS011;35069;47.906;1.892;2023-11-19T09:55:06;17.67;;;3.35;;
49237;SDS011;35069;47.906;1.892;2023-11-19T09:57:32;11.38;;;2.95;;
49237;SDS011;35069;47.906;1.892;2023-11-19T10:00:02;12.52;;;3.42;;
49237;SDS011;35069;47.906;1.892;2023-11-19T10:02:30;11.43;;;3.45;;
49237;SDS011;35069;47.906;1.892;2023-11-19T10:04:58;12.18;;;3.25;;
49237;SDS011;35069;47.906;1.892;2023-11-19T10:07:24;15.48;;;4.22;;
49237;SDS011;35069;47.906;1.892;2023-11-19T10:09:50;13.88;;;3.65;;
49237;SDS011;35069;47.906;1.892;2023-11-19T10:12:15;15.70;;;4.28;;
49237;SDS011;35069;47.906;1.892;2023-11-19T10:14:41;16.92;;;3.63;;
49237;SDS011;35069;47.906;1.892;2023-11-19T10:17:09;15.88;;;4.15;;
49237;SDS011;35069;47.906;1.892;2023-11-19T10:19:34;18.08;;;3.58;;
49237;SDS011;35069;47.906;1.892;2023-11-19T10:22:09;15.05;;;3.55;;
49237;SDS011;35069;47.906;1.892;2023-11-19T10:24:36;15.35;;;3.83;;
49237;SDS011;35069;47.906;1.892;2023-11-19T10:27:06;17.50;;;4.00;;
49237;SDS011;35069;47.906;1.892;2023-11-19T10:29:35;14.68;;;3.30;;
49237;SDS011;35069;47.906;1.892;2023-11-19T10:32:02;13.77;;;2.88;;
49237;SDS011;35069;47.906;1.892;2023-11-19T10:34:28;19.95;;;4.15;;
49237;SDS011;35069;47.906;1.892;2023-11-19T10:36:55;17.15;;;3.40;;
49237;SDS011;35069;47.906;1.892;2023-11-19T10:39:20;12.52;;;2.72;;
49237;SDS011;35069;47.906;1.892;2023-11-19T10:41:46;15.57;;;4.60;;
49237;SDS011;35069;47.906;1.892;2023-11-19T10:44:12;11.38;;;3.17;;
49237;SDS011;35069;47.906;1.892;2023-11-19T10:46:55;11.93;;;4.25;;
49237;SDS011;35069;47.906;1.892;2023-11-19T10:49:21;15.93;;;3.42;;
49237;SDS011;35069;47.906;1.892;2023-11-19T10:51:46;16.50;;;3.85;;
49237;SDS011;35069;47.906;1.892;2023-11-19T10:54:13;14.68;;;4.68;;
49237;SDS011;35069;47.906;1.892;2023-11-19T10:56:43;17.25;;;4.00;;
49237;SDS011;35069;47.906;1.892;2023-11-19T10:59:14;13.10;;;4.32;;
49237;SDS011;35069;47.906;1.892;2023-11-19T11:01:44;10.80;;;2.97;;
49237;SDS011;35069;47.906;1.892;2023-11-19T11:04:14;17.77;;;3.72;;
49237;SDS011;35069;47.906;1.892;2023-11-19T11:06:46;11.27;;;3.42;;
49237;SDS011;35069;47.906;1.892;2023-11-19T11:09:13;13.82;;;4.10;;
49237;SDS011;35069;47.906;1.892;2023-11-19T11:11:40;15.63;;;3.78;;
49237;SDS011;35069;47.906;1.892;2023-11-19T11:14:09;13.07;;;3.75;;
49237;SDS011;35069;47.906;1.892;2023-11-19T11:16:40;14.55;;;3.33;;
49237;SDS011;35069;47.906;1.892;2023-11-19T11:19:08;17.08;;;4.03;;
49237;SDS011;35069;47.906;1.892;2023-11-19T11:21:35;12.63;;;3.90;;
49237;SDS011;35069;47.906;1.892;2023-11-19T11:26:51;14.40;;;4.43;;
49237;SDS011;35069;47.906;1.892;2023-11-19T11:29:46;16.85;;;4.00;;
49237;SDS011;35069;47.906;1.892;2023-11-19T11:38:02;17.00;;;4.00;;
49237;SDS011;35069;47.906;1.892;2023-11-19T11:40:31;12.40;;;2.90;;
49237;SDS011;35069;47.906;1.892;2023-11-19T11:42:57;9.20;;;2.80;;
49237;SDS011;35069;47.906;1.892;2023-11-19T11:45:35;11.60;;;3.30;;
49237;SDS011;35069;47.906;1.892;2023-11-19T11:48:08;7.40;;;2.88;;
49237;SDS011;35069;47.906;1.892;2023-11-19T11:50:36;8.95;;;3.08;;
49237;SDS011;35069;47.906;1.892;2023-11-19T11:53:16;7.43;;;3.60;;
49237;SDS011;35069;47.906;1.892;2023-11-19T11:58:17;11.38;;;2.83;;
49237;SDS011;35069;47.906;1.892;2023-11-19T12:00:46;10.77;;;4.90;;
49237;SDS011;35069;47.906;1.892;2023-11-19T12:03:13;8.07;;;3.08;;
49237;SDS011;35069;47.906;1.892;2023-11-19T12:05:43;12.68;;;3.15;;
49237;SDS011;35069;47.906;1.892;2023-11-19T12:08:13;11.82;;;3.33;;
49237;SDS011;35069;47.906;1.892;2023-11-19T12:10:47;13.30;;;3.25;;
49237;SDS011;35069;47.906;1.892;2023-11-19T12:13:17;10.93;;;3.65;;
49237;SDS011;35069;47.906;1.892;2023-11-19T12:18:23;10.77;;;3.28;;
49237;SDS011;35069;47.906;1.892;2023-11-19T12:20:52;8.98;;;2.65;;
49237;SDS011;35069;47.906;1.892;2023-11-19T12:23:18;9.23;;;3.13;;
49237;SDS011;35069;47.906;1.892;2023-11-19T12:25:44;10.65;;;2.72;;
49237;SDS011;35069;47.906;1.892;2023-11-19T12:28:13;9.38;;;3.63;;
49237;SDS011;35069;47.906;1.892;2023-11-19T12:30:39;17.02;;;3.85;;
49237;SDS011;35069;47.906;1.892;2023-11-19T12:33:08;11.45;;;3.80;;
49237;SDS011;35069;47.906;1.892;2023-11-19T12:35:38;15.57;;;3.67;;
49237;SDS011;35069;47.906;1.892;2023-11-19T12:38:07;12.68;;;3.50;;
49237;SDS011;35069;47.906;1.892;2023-11-19T12:40:33;16.17;;;3.58;;
49237;SDS011;35069;47.906;1.892;2023-11-19T12:42:59;12.55;;;3.30;;
49237;SDS011;35069;47.906;1.892;2023-11-19T12:45:33;15.70;;;3.58;;
49237;SDS011;35069;47.906;1.892;2023-11-19T12:48:04;12.50;;;3.97;;
49237;SDS011;35069;47.906;1.892;2023-11-19T12:50:30;17.02;;;3.83;;
49237;SDS011;35069;47.906;1.892;2023-11-19T12:53:23;10.90;;;4.00;;
49237;SDS011;35069;47.906;1.892;2023-11-19T13:11:14;24.85;;;4.22;;
49237;SDS011;35069;47.906;1.892;2023-11-19T13:14:00;15.55;;;3.50;;
49237;SDS011;35069;47.906;1.892;2023-11-19T13:16:29;15.05;;;3.28;;
49237;SDS011;35069;47.906;1.892;2023-11-19T13:18:55;13.00;;;3.88;;
49237;SDS011;35069;47.906;1.892;2023-11-19T13:21:20;13.10;;;3.72;;
49237;SDS011;35069;47.906;1.892;2023-11-19T13:23:46;10.15;;;4.18;;
49237;SDS011;35069;47.906;1.892;2023-11-19T13:26:12;15.18;;;3.67;;
49237;SDS011;35069;47.906;1.892;2023-11-19T13:28:40;16.02;;;5.00;;
49237;SDS011;35069;47.906;1.892;2023-11-19T13:31:06;13.23;;;3.30;;
49237;SDS011;35069;47.906;1.892;2023-11-19T13:33:32;12.95;;;3.90;;
49237;SDS011;35069;47.906;1.892;2023-11-19T13:35:58;16.98;;;3.25;;
49237;SDS011;35069;47.906;1.892;2023-11-19T13:38:24;17.73;;;3.83;;
49237;SDS011;35069;47.906;1.892;2023-11-19T13:40:50;12.45;;;4.13;;
49237;SDS011;35069;47.906;1.892;2023-11-19T13:43:16;12.90;;;3.35;;
49237;SDS011;35069;47.906;1.892;2023-11-19T13:45:42;16.85;;;3.78;;
49237;SDS011;35069;47.906;1.892;2023-11-19T13:48:07;19.67;;;3.33;;
49237;SDS011;35069;47.906;1.892;2023-11-19T13:50:34;20.52;;;3.75;;
49237;SDS011;35069;47.906;1.892;2023-11-19T13:52:59;16.70;;;3.88;;
49237;SDS011;35069;47.906;1.892;2023-11-19T13:55:25;12.60;;;3.60;;
49237;SDS011;35069;47.906;1.892;2023-11-19T13:57:51;19.27;;;3.83;;
49237;SDS011;35069;47.906;1.892;2023-11-19T14:00:17;19.00;;;4.97;;
49237;SDS011;35069;47.906;1.892;2023-11-19T14:02:44;18.63;;;4.15;;
49237;SDS011;35069;47.906;1.892;2023-11-19T14:05:11;15.20;;;4.47;;
49237;SDS011;35069;47.906;1.892;2023-11-19T14:07:38;14.13;;;3.22;;
49237;SDS011;35069;47.906;1.892;2023-11-19T14:10:04;18.08;;;3.92;;
49237;SDS011;35069;47.906;1.892;2023-11-19T14:12:31;19.40;;;4.45;;
49237;SDS011;35069;47.906;1.892;2023-11-19T14:14:57;16.92;;;5.15;;
49237;SDS011;35069;47.906;1.892;2023-11-19T14:17:24;12.77;;;3.58;;
49237;SDS011;35069;47.906;1.892;2023-11-19T14:19:50;16.13;;;4.03;;
49237;SDS011;35069;47.906;1.892;2023-11-19T14:22:16;23.42;;;3.72;;
49237;SDS011;35069;47.906;1.892;2023-11-19T14:24:42;16.88;;;4.00;;
49237;SDS011;35069;47.906;1.892;2023-11-19T14:27:08;17.23;;;3.50;;
49237;SDS011;35069;47.906;1.892;2023-11-19T14:29:34;18.83;;;3.65;;
49237;SDS011;35069;47.906;1.892;2023-11-19T14:32:00;20.63;;;4.45;;
49237;SDS011;35069;47.906;1.892;2023-11-19T14:34:26;18.10;;;3.80;;
49237;SDS011;35069;47.906;1.892;2023-11-19T14:36:52;17.13;;;3.53;;
49237;SDS011;35069;47.906;1.892;2023-11-19T14:39:19;14.45;;;3.58;;
49237;SDS011;35069;47.906;1.892;2023-11-19T14:41:51;18.38;;;4.13;;
49237;SDS011;35069;47.906;1.892;2023-11-19T14:44:29;13.70;;;4.13;;
49237;SDS011;35069;47.906;1.892;2023-11-19T14:46:55;18.05;;;3.72;;
49237;SDS011;35069;47.906;1.892;2023-11-19T14:49:31;13.48;;;3.65;;
49237;SDS011;35069;47.906;1.892;2023-11-19T14:51:59;23.58;;;5.07;;
49237;SDS011;35069;47.906;1.892;2023-11-19T15:01:24;15.77;;;3.90;;
49237;SDS011;35069;47.906;1.892;2023-11-19T15:03:58;16.13;;;4.45;;
49237;SDS011;35069;47.906;1.892;2023-11-19T15:06:24;18.65;;;5.55;;
49237;SDS011;35069;47.906;1.892;2023-11-19T15:09:00;20.65;;;5.05;;
49237;SDS011;35069;47.906;1.892;2023-11-19T15:11:28;22.70;;;4.72;;
49237;SDS011;35069;47.906;1.892;2023-11-19T15:13:54;14.75;;;4.45;;
49237;SDS011;35069;47.906;1.892;2023-11-19T15:16:20;14.95;;;4.32;;
49237;SDS011;35069;47.906;1.892;2023-11-19T15:18:51;16.05;;;3.75;;
49237;SDS011;35069;47.906;1.892;2023-11-19T15:21:17;15.65;;;4.20;;
49237;SDS011;35069;47.906;1.892;2023-11-19T15:23:43;17.70;;;4.22;;
49237;SDS011;35069;47.906;1.892;2023-11-19T15:26:08;17.98;;;4.25;;
49237;SDS011;35069;47.906;1.892;2023-11-19T15:28:41;15.68;;;4.47;;
49237;SDS011;35069;47.906;1.892;2023-11-19T15:31:44;20.17;;;5.15;;
49237;SDS011;35069;47.906;1.892;2023-11-19T15:34:17;17.08;;;4.53;;
49237;SDS011;35069;47.906;1.892;2023-11-19T15:36:44;20.55;;;5.45;;
49237;SDS011;35069;47.906;1.892;2023-11-19T15:39:21;17.73;;;4.10;;
49237;SDS011;35069;47.906;1.892;2023-11-19T15:41:52;22.63;;;6.20;;
49237;SDS011;35069;47.906;1.892;2023-11-19T15:44:21;25.20;;;5.47;;
49237;SDS011;35069;47.906;1.892;2023-11-19T15:46:47;21.83;;;5.25;;
49237;SDS011;35069;47.906;1.892;2023-11-19T15:49:13;21.65;;;4.70;;
49237;SDS011;35069;47.906;1.892;2023-11-19T15:51:47;12.75;;;4.63;;
49237;SDS011;35069;47.906;1.892;2023-11-19T15:54:18;24.00;;;6.85;;
49237;SDS011;35069;47.906;1.892;2023-11-19T15:56:44;20.33;;;5.03;;